Time;durP1;ratioP1;P1;durP2;ratioP2;P2;SDS_P1;SDS_P2;PMS_P1;PMS_P2;Temp;Humidity;BMP_temperature;BMP_pressure;BME280_temperature;BME280_humidity;BME280_pressure;Samples;Min_cycle;Max_cycle;Signal;HPM_P1;HPM_P2
2023/01/21 00:01:14;;;;;;;14.02;9.65;;;;;;;;;;4932097;29;20050;-85
2023/01/21 00:03:41;;;;;;;12.23;9.30;;;;;;;;;;4912685;29;20056;-85
2023/01/21 00:06:09;;;;;;;13.80;10.27;;;;;;;;;;4916660;29;20077;-85
2023/01/21 00:08:36;;;;;;;14.07;9.82;;;;;;;;;;4930099;29;20075;-85
2023/01/21 00:11:10;;;;;;;12.18;9.27;;;;;;;;;;4932753;29;20054;-85
2023/01/21 00:13:37;;;;;;;;;;;;;;;;;;4915413;29;20066;-85
2023/01/21 00:16:07;;;;;;;13.30;10.40;;;;;;;;;;4924441;29;20342;-85
2023/01/21 00:18:36;;;;;;;14.73;11.70;;;;;;;;;;4913281;29;20502;-85
2023/01/21 00:21:06;;;;;;;12.55;9.25;;;;;;;;;;4931412;29;20059;-85
2023/01/21 00:23:33;;;;;;;13.15;9.65;;;;;;;;;;4933622;29;20048;-85
2023/01/21 00:26:05;;;;;;;14.35;10.10;;;;;;;;;;4910319;29;20055;-85
2023/01/21 00:28:35;;;;;;;14.95;11.90;;;;;;;;;;4916931;29;20533;-85
2023/01/21 00:31:04;;;;;;;15.32;10.45;;;;;;;;;;4919071;29;20521;-85
2023/01/21 00:33:36;;;;;;;12.63;10.68;;;;;;;;;;4917359;29;20043;-85
2023/01/21 00:36:05;;;;;;;12.93;10.73;;;;;;;;;;4899894;29;20055;-84
2023/01/21 00:38:32;;;;;;;15.65;11.00;;;;;;;;;;4920815;29;20517;-85
2023/01/21 00:41:01;;;;;;;11.73;9.32;;;;;;;;;;4917399;29;20047;-85
2023/01/21 00:43:28;;;;;;;16.10;11.43;;;;;;;;;;4932844;29;20058;-84
2023/01/21 00:45:57;;;;;;;12.80;10.90;;;;;;;;;;4934992;29;20060;-85
2023/01/21 00:48:24;;;;;;;16.58;12.25;;;;;;;;;;4933038;29;20055;-85
2023/01/21 00:50:54;;;;;;;15.95;12.05;;;;;;;;;;4958828;23;20097;-82
2023/01/21 00:53:22;;;;;;;13.45;11.70;;;;;;;;;;4930339;29;20046;-81
2023/01/21 00:55:49;;;;;;;21.05;14.13;;;;;;;;;;4946661;29;20520;-81
2023/01/21 00:58:16;;;;;;;19.30;14.70;;;;;;;;;;4953330;28;20062;-81
2023/01/21 01:00:46;;;;;;;24.80;15.90;;;;;;;;;;4953610;28;20054;-81
2023/01/21 01:03:16;;;;;;;20.75;15.00;;;;;;;;;;4953006;28;20066;-81
2023/01/21 01:05:43;;;;;;;18.52;16.25;;;;;;;;;;4939943;29;20039;-81
2023/01/21 01:08:15;;;;;;;23.40;17.48;;;;;;;;;;4930021;29;20059;-81
2023/01/21 01:10:43;;;;;;;22.80;17.23;;;;;;;;;;4953631;28;20043;-81
2023/01/21 01:13:10;;;;;;;22.23;17.40;;;;;;;;;;4921919;29;20065;-81
2023/01/21 01:15:37;;;;;;;26.95;18.65;;;;;;;;;;4942516;29;20035;-81
2023/01/21 01:18:04;;;;;;;22.83;19.42;;;;;;;;;;4954094;28;20062;-81
2023/01/21 01:20:35;;;;;;;24.08;16.10;;;;;;;;;;4934723;29;20052;-81
2023/01/21 01:23:03;;;;;;;24.52;18.45;;;;;;;;;;4949637;28;20055;-81
2023/01/21 01:25:31;;;;;;;22.50;17.60;;;;;;;;;;4942305;29;20054;-80
2023/01/21 01:27:58;;;;;;;22.95;16.58;;;;;;;;;;4953647;28;20043;-81
2023/01/21 01:30:25;;;;;;;25.15;17.17;;;;;;;;;;4934397;29;20055;-81
2023/01/21 01:32:55;;;;;;;24.70;18.50;;;;;;;;;;4950813;28;20532;-81
2023/01/21 01:35:22;;;;;;;25.60;18.20;;;;;;;;;;4952961;28;20066;-81
2023/01/21 01:37:51;;;;;;;24.60;19.45;;;;;;;;;;4945797;29;20051;-82
2023/01/21 01:40:18;;;;;;;24.17;16.23;;;;;;;;;;4937477;29;20058;-82
2023/01/21 01:42:50;;;;;;;21.70;16.58;;;;;;;;;;4937213;28;20429;-81
2023/01/21 01:45:21;;;;;;;21.35;15.95;;;;;;;;;;4950985;28;20520;-82
2023/01/21 01:47:57;;;;;;;22.30;18.45;;;;;;;;;;4936380;29;20529;-82
2023/01/21 01:50:27;;;;;;;23.65;16.65;;;;;;;;;;4921200;29;20047;-81
2023/01/21 01:52:56;;;;;;;22.95;17.58;;;;;;;;;;4949888;28;20059;-81
2023/01/21 01:55:24;;;;;;;20.45;16.85;;;;;;;;;;4939445;29;20047;-81
2023/01/21 01:57:53;;;;;;;21.00;17.92;;;;;;;;;;4921735;29;20062;-82
2023/01/21 02:00:21;;;;;;;19.60;15.55;;;;;;;;;;4919906;28;20421;-81
2023/01/21 02:05:34;;;;;;;26.98;17.23;;;;;;;;;;4951384;28;20054;-81
2023/01/21 02:08:03;;;;;;;20.40;16.35;;;;;;;;;;4947335;28;20489;-81
2023/01/21 02:10:35;;;;;;;;;;;;;;;;;;4937981;29;20062;-81
2023/01/21 02:13:02;;;;;;;18.63;14.25;;;;;;;;;;4933336;29;19922;-81
2023/01/21 02:15:34;;;;;;;22.15;17.13;;;;;;;;;;4940742;29;20059;-81
2023/01/21 02:18:08;;;;;;;25.80;18.27;;;;;;;;;;4952986;28;20050;-81
2023/01/21 02:21:09;;;;;;;23.55;17.10;;;;;;;;;;4920396;29;20051;-81
2023/01/21 02:23:57;;;;;;;19.83;15.60;;;;;;;;;;4934816;29;20051;-81
2023/01/21 02:26:38;;;;;;;23.58;18.33;;;;;;;;;;4956596;28;20048;-81
2023/01/21 02:29:33;;;;;;;22.40;16.55;;;;;;;;;;4933722;29;20050;-81
2023/01/21 02:32:10;;;;;;;18.65;13.82;;;;;;;;;;4935732;29;20047;-81
2023/01/21 02:34:43;;;;;;;18.50;14.77;;;;;;;;;;4918694;29;20051;-81
2023/01/21 02:37:12;;;;;;;18.58;13.52;;;;;;;;;;4919920;29;20047;-81
2023/01/21 02:39:54;;;;;;;17.80;12.07;;;;;;;;;;4957468;28;20050;-81
2023/01/21 02:42:31;;;;;;;17.27;13.88;;;;;;;;;;4972494;28;20038;-81
2023/01/21 02:45:03;;;;;;;20.42;14.40;;;;;;;;;;4965007;29;20073;-81
2023/01/21 02:47:33;;;;;;;17.60;13.43;;;;;;;;;;4932914;28;20063;-81
2023/01/21 02:50:04;;;;;;;22.75;16.13;;;;;;;;;;4948014;28;20406;-80
2023/01/21 02:52:32;;;;;;;17.00;13.65;;;;;;;;;;4931927;29;20066;-81
2023/01/21 02:55:03;;;;;;;20.65;14.73;;;;;;;;;;4929309;29;20054;-80
2023/01/21 02:57:41;;;;;;;23.00;17.27;;;;;;;;;;4918332;29;20052;-81
2023/01/21 03:00:15;;;;;;;21.70;15.57;;;;;;;;;;4935219;29;20043;-80
2023/01/21 03:03:12;;;;;;;19.58;15.13;;;;;;;;;;4951123;29;20039;-80
2023/01/21 03:05:57;;;;;;;18.90;15.43;;;;;;;;;;4950527;28;20074;-81
2023/01/21 03:08:29;;;;;;;21.25;15.05;;;;;;;;;;4935819;29;20055;-80
2023/01/21 03:11:04;;;;;;;23.08;16.67;;;;;;;;;;4949643;28;20418;-80
2023/01/21 03:19:14;;;;;;;26.13;18.40;;;;;;;;;;4952485;28;20414;-80
2023/01/21 03:21:44;;;;;;;22.48;15.32;;;;;;;;;;4952193;28;20070;-80
2023/01/21 03:24:14;;;;;;;20.65;15.40;;;;;;;;;;4938593;29;20051;-80
2023/01/21 03:26:44;;;;;;;23.70;20.33;;;;;;;;;;4948737;28;20509;-80
2023/01/21 03:29:15;;;;;;;21.90;18.67;;;;;;;;;;4950414;28;20058;-80
2023/01/21 03:31:48;;;;;;;35.00;19.73;;;;;;;;;;4935601;29;20052;-80
2023/01/21 03:34:16;;;;;;;19.73;16.85;;;;;;;;;;4936710;29;20043;-80
2023/01/21 03:36:48;;;;;;;22.75;16.88;;;;;;;;;;4932267;28;20044;-80
2023/01/21 03:39:20;;;;;;;16.85;14.30;;;;;;;;;;4934529;29;20048;-81
2023/01/21 03:41:49;;;;;;;22.33;17.25;;;;;;;;;;4953779;29;20414;-81
2023/01/21 03:44:16;;;;;;;22.30;16.08;;;;;;;;;;4933683;29;20066;-81
2023/01/21 03:46:49;;;;;;;23.58;16.33;;;;;;;;;;4940074;29;20414;-81
2023/01/21 03:49:20;;;;;;;21.50;17.55;;;;;;;;;;4913150;29;20517;-81
2023/01/21 03:51:53;;;;;;;23.05;17.02;;;;;;;;;;4951996;29;20059;-81
2023/01/21 03:54:23;;;;;;;21.10;16.92;;;;;;;;;;4931790;29;20039;-80
2023/01/21 03:56:50;;;;;;;21.35;16.80;;;;;;;;;;4928941;29;20051;-80
2023/01/21 03:59:17;;;;;;;17.10;14.80;;;;;;;;;;4953571;28;20876;-80
2023/01/21 04:01:47;;;;;;;21.05;17.38;;;;;;;;;;4940066;29;20086;-80
2023/01/21 04:04:14;;;;;;;18.38;13.68;;;;;;;;;;4920076;29;20066;-80
2023/01/21 04:06:44;;;;;;;20.10;17.67;;;;;;;;;;4956097;28;20043;-80
2023/01/21 04:09:12;;;;;;;23.83;18.10;;;;;;;;;;4951257;28;20055;-80
2023/01/21 04:11:40;;;;;;;17.08;15.00;;;;;;;;;;4921177;29;20414;-80
2023/01/21 04:14:09;;;;;;;19.60;14.88;;;;;;;;;;4934256;29;20706;-80
2023/01/21 04:16:39;;;;;;;18.45;15.90;;;;;;;;;;4937883;29;20047;-80
2023/01/21 04:19:09;;;;;;;20.08;16.83;;;;;;;;;;4935893;29;20046;-80
2023/01/21 04:21:36;;;;;;;25.30;17.05;;;;;;;;;;4936740;29;20051;-81
2023/01/21 04:24:03;;;;;;;25.95;21.35;;;;;;;;;;4936105;29;20047;-81
2023/01/21 04:26:32;;;;;;;26.00;18.27;;;;;;;;;;4921516;29;20051;-80
2023/01/21 04:28:59;;;;;;;25.00;17.08;;;;;;;;;;4934117;29;20054;-80
2023/01/21 04:31:29;;;;;;;26.83;20.58;;;;;;;;;;4957089;28;20420;-81
2023/01/21 04:33:58;;;;;;;30.73;19.30;;;;;;;;;;4949116;28;20051;-80
2023/01/21 04:36:28;;;;;;;30.63;19.77;;;;;;;;;;4943703;28;20617;-81
2023/01/21 04:38:58;;;;;;;22.92;17.88;;;;;;;;;;4927321;29;20066;-80
2023/01/21 04:41:25;;;;;;;21.65;18.70;;;;;;;;;;4954956;28;20047;-81
2023/01/21 04:43:53;;;;;;;24.98;17.98;;;;;;;;;;4936337;29;20047;-81
2023/01/21 04:46:21;;;;;;;24.77;16.88;;;;;;;;;;4933836;28;20051;-81
2023/01/21 04:48:50;;;;;;;20.45;15.35;;;;;;;;;;4940538;28;20058;-81
2023/01/21 04:51:20;;;;;;;22.08;16.58;;;;;;;;;;4934039;29;20043;-81
2023/01/21 04:53:52;;;;;;;23.02;16.50;;;;;;;;;;4952770;28;20051;-82
2023/01/21 04:56:19;;;;;;;27.80;16.77;;;;;;;;;;4946415;29;20524;-81
2023/01/21 04:58:49;;;;;;;20.73;15.80;;;;;;;;;;4936023;29;20421;-81
2023/01/21 05:01:20;;;;;;;23.20;17.15;;;;;;;;;;4943326;28;20060;-81
2023/01/21 05:03:47;;;;;;;23.77;15.23;;;;;;;;;;4954560;28;20059;-81
2023/01/21 05:06:14;;;;;;;25.20;18.25;;;;;;;;;;4922906;29;20063;-82
2023/01/21 05:08:41;;;;;;;23.27;17.17;;;;;;;;;;4934038;28;20043;-81
2023/01/21 05:11:09;;;;;;;22.27;15.70;;;;;;;;;;4952864;28;20051;-81
2023/01/21 05:13:38;;;;;;;20.65;14.98;;;;;;;;;;4935093;29;20046;-81
2023/01/21 05:16:08;;;;;;;27.38;16.65;;;;;;;;;;4921927;29;20043;-81
2023/01/21 05:18:40;;;;;;;18.30;14.27;;;;;;;;;;4935537;28;20417;-81
2023/01/21 05:21:08;;;;;;;22.70;15.80;;;;;;;;;;4950989;28;20054;-81
2023/01/21 05:23:37;;;;;;;22.88;13.50;;;;;;;;;;4937445;29;20074;-81
2023/01/21 05:26:05;;;;;;;20.65;14.82;;;;;;;;;;4922556;29;20051;-81
2023/01/21 05:28:32;;;;;;;19.05;16.70;;;;;;;;;;4935724;29;20051;-81
2023/01/21 05:31:01;;;;;;;29.67;16.83;;;;;;;;;;4918458;29;20524;-81
2023/01/21 05:33:30;;;;;;;18.23;16.13;;;;;;;;;;4948608;28;20062;-81
2023/01/21 05:35:59;;;;;;;21.60;15.48;;;;;;;;;;4935552;28;20043;-81
2023/01/21 05:38:27;;;;;;;18.75;16.75;;;;;;;;;;4931511;29;20062;-81
2023/01/21 05:40:56;;;;;;;26.42;18.42;;;;;;;;;;4916457;29;20051;-81
2023/01/21 05:43:26;;;;;;;19.75;13.75;;;;;;;;;;4949361;28;20050;-81
2023/01/21 05:45:53;;;;;;;26.75;16.25;;;;;;;;;;4948827;28;20047;-81
2023/01/21 05:48:21;;;;;;;20.85;16.65;;;;;;;;;;4936087;29;20047;-82
2023/01/21 05:50:51;;;;;;;21.00;14.50;;;;;;;;;;4950500;28;20631;-81
2023/01/21 05:53:19;;;;;;;18.27;13.25;;;;;;;;;;4956525;28;20050;-82
2023/01/21 05:55:46;;;;;;;19.95;15.43;;;;;;;;;;4953176;28;20078;-81
2023/01/21 05:58:13;;;;;;;17.75;14.07;;;;;;;;;;4952098;28;20450;-81
2023/01/21 06:00:43;;;;;;;17.83;15.10;;;;;;;;;;4952330;28;20051;-81
2023/01/21 06:03:11;;;;;;;19.00;16.42;;;;;;;;;;4932289;29;20067;-81
2023/01/21 06:05:38;;;;;;;19.90;14.10;;;;;;;;;;4952730;29;20390;-81
2023/01/21 06:08:05;;;;;;;18.13;14.32;;;;;;;;;;4933654;28;20052;-82
2023/01/21 06:10:36;;;;;;;21.90;17.30;;;;;;;;;;4932785;28;20047;-82
2023/01/21 06:13:06;;;;;;;20.48;14.05;;;;;;;;;;4951563;28;20055;-82
2023/01/21 06:15:33;;;;;;;18.27;14.18;;;;;;;;;;4954562;29;20062;-82
2023/01/21 06:18:00;;;;;;;15.57;11.80;;;;;;;;;;4935133;29;20047;-82
2023/01/21 06:20:29;;;;;;;15.90;13.10;;;;;;;;;;4923452;29;20050;-82
2023/01/21 06:22:58;;;;;;;14.52;12.98;;;;;;;;;;4953633;29;20046;-82
2023/01/21 06:25:26;;;;;;;15.57;12.70;;;;;;;;;;4937869;29;20418;-82
2023/01/21 06:27:56;;;;;;;17.80;12.75;;;;;;;;;;4919887;29;20506;-80
2023/01/21 06:30:26;;;;;;;18.88;12.40;;;;;;;;;;4933860;28;20063;-82
2023/01/21 06:32:55;;;;;;;15.63;12.23;;;;;;;;;;4951909;28;20063;-81
2023/01/21 06:35:27;;;;;;;20.90;14.27;;;;;;;;;;4918203;29;20422;-81
2023/01/21 06:37:57;;;;;;;17.08;11.30;;;;;;;;;;4938163;29;20465;-81
2023/01/21 06:40:24;;;;;;;20.52;13.88;;;;;;;;;;4919957;28;20054;-81
2023/01/21 06:42:52;;;;;;;20.33;12.18;;;;;;;;;;4934108;29;20438;-81
2023/01/21 06:45:21;;;;;;;18.48;13.55;;;;;;;;;;4917297;29;20055;-81
2023/01/21 06:47:48;;;;;;;18.23;13.93;;;;;;;;;;4924485;29;20051;-81
2023/01/21 07:27:00;;;;;;;18.73;11.88;;;;;;;;;;5104685;27;20397;-82
2023/01/21 07:29:28;;;;;;;22.58;13.75;;;;;;;;;;5095841;28;20044;-82
2023/01/21 07:32:00;;;;;;;16.70;12.57;;;;;;;;;;5103938;28;20052;-82
2023/01/21 07:34:32;;;;;;;15.65;13.15;;;;;;;;;;5095764;28;20048;-82
2023/01/21 07:36:59;;;;;;;16.20;13.10;;;;;;;;;;5099160;28;20051;-82
2023/01/21 07:39:27;;;;;;;18.90;12.43;;;;;;;;;;5092275;28;20046;-82
2023/01/21 07:41:59;;;;;;;16.50;12.02;;;;;;;;;;5096633;28;20273;-82
2023/01/21 07:44:32;;;;;;;21.33;16.45;;;;;;;;;;5098233;28;20500;-82
2023/01/21 07:47:00;;;;;;;19.27;13.95;;;;;;;;;;5094063;28;20044;-82
2023/01/21 07:49:27;;;;;;;22.00;16.05;;;;;;;;;;5097953;28;20062;-82
2023/01/21 07:51:56;;;;;;;17.55;12.20;;;;;;;;;;5095205;28;20441;-82
2023/01/21 07:54:27;;;;;;;14.85;10.25;;;;;;;;;;5096263;28;20044;-82
2023/01/21 07:56:54;;;;;;;15.85;13.48;;;;;;;;;;5091931;28;20394;-83
2023/01/21 07:59:22;;;;;;;24.50;12.07;;;;;;;;;;5093684;28;20395;-84
2023/01/21 08:01:51;;;;;;;18.30;14.68;;;;;;;;;;5090078;28;20048;-81
2023/01/21 08:04:19;;;;;;;16.27;12.27;;;;;;;;;;5090931;28;20044;-81
2023/01/21 08:06:46;;;;;;;16.33;12.13;;;;;;;;;;5083666;28;20497;-81
2023/01/21 08:09:13;;;;;;;17.50;12.98;;;;;;;;;;5089695;28;20047;-81
2023/01/21 08:11:43;;;;;;;17.35;13.02;;;;;;;;;;5090815;28;20058;-81
2023/01/21 08:14:12;;;;;;;20.00;14.27;;;;;;;;;;5092490;28;20490;-81
2023/01/21 08:16:41;;;;;;;18.02;13.25;;;;;;;;;;5094267;28;20039;-86
2023/01/21 08:19:10;;;;;;;17.58;15.00;;;;;;;;;;5082925;28;20067;-81
2023/01/21 08:21:38;;;;;;;15.00;11.18;;;;;;;;;;5086992;28;20052;-81
2023/01/21 08:24:06;;;;;;;23.25;14.85;;;;;;;;;;5091741;28;20067;-81
2023/01/21 08:26:33;;;;;;;22.38;14.90;;;;;;;;;;5093402;28;20037;-81
2023/01/21 08:29:01;;;;;;;27.13;20.05;;;;;;;;;;5084427;28;20704;-81
2023/01/21 08:31:28;;;;;;;26.95;19.58;;;;;;;;;;5095779;28;20040;-81
2023/01/21 08:33:56;;;;;;;22.13;19.75;;;;;;;;;;5094945;28;20073;-81
2023/01/21 08:36:25;;;;;;;25.02;19.48;;;;;;;;;;5088699;28;20037;-81
2023/01/21 08:38:53;;;;;;;28.98;21.27;;;;;;;;;;5083397;28;20040;-81
2023/01/21 08:41:20;;;;;;;27.15;20.35;;;;;;;;;;5086000;28;20510;-81
2023/01/21 08:43:48;;;;;;;29.23;20.40;;;;;;;;;;5063659;28;20204;-81
2023/01/21 08:46:15;;;;;;;31.63;23.65;;;;;;;;;;5083155;28;20040;-81
2023/01/21 08:48:42;;;;;;;32.20;21.33;;;;;;;;;;5075022;28;20430;-81
2023/01/21 08:51:10;;;;;;;26.38;20.73;;;;;;;;;;5074981;28;20051;-81
2023/01/21 08:53:39;;;;;;;25.70;19.20;;;;;;;;;;5073234;28;20058;-81
2023/01/21 08:56:06;;;;;;;26.52;22.48;;;;;;;;;;5079950;28;20631;-81
2023/01/21 08:58:34;;;;;;;27.70;22.80;;;;;;;;;;5078684;28;20047;-81
2023/01/21 09:01:06;;;;;;;28.48;20.13;;;;;;;;;;5077178;28;20060;-81
2023/01/21 09:03:33;;;;;;;32.63;19.23;;;;;;;;;;5076782;28;20114;-81
2023/01/21 09:06:01;;;;;;;22.45;16.55;;;;;;;;;;5077093;28;20052;-81
2023/01/21 09:08:29;;;;;;;21.40;17.17;;;;;;;;;;5079233;28;20071;-81
2023/01/21 09:11:01;;;;;;;25.95;18.40;;;;;;;;;;5085585;28;20048;-81
2023/01/21 09:13:30;;;;;;;25.60;18.25;;;;;;;;;;5080978;28;20047;-81
2023/01/21 09:15:57;;;;;;;21.65;16.80;;;;;;;;;;5086241;28;20032;-81
2023/01/21 09:18:25;;;;;;;23.05;16.95;;;;;;;;;;5085503;28;20052;-81
2023/01/21 09:20:52;;;;;;;20.75;16.00;;;;;;;;;;5082053;28;20052;-82
2023/01/21 09:23:26;;;;;;;24.17;16.88;;;;;;;;;;5060939;28;20056;-81
2023/01/21 09:25:55;;;;;;;21.85;18.08;;;;;;;;;;5071330;28;20044;-82
2023/01/21 09:28:24;;;;;;;25.02;17.83;;;;;;;;;;5064023;28;20052;-82
2023/01/21 09:30:56;;;;;;;22.92;16.33;;;;;;;;;;5068674;28;20044;-82
2023/01/21 09:33:23;;;;;;;21.48;15.73;;;;;;;;;;5068539;28;20052;-81
2023/01/21 09:35:53;;;;;;;17.90;15.35;;;;;;;;;;5075873;28;20048;-81
2023/01/21 09:38:20;;;;;;;21.42;17.98;;;;;;;;;;5084731;28;20134;-82
2023/01/21 09:40:48;;;;;;;20.42;14.90;;;;;;;;;;5077823;28;20052;-82
2023/01/21 09:43:21;;;;;;;17.85;15.20;;;;;;;;;;5083473;28;20048;-81
2023/01/21 09:45:50;;;;;;;23.23;15.87;;;;;;;;;;5082968;28;20418;-81
2023/01/21 09:48:26;;;;;;;19.80;16.48;;;;;;;;;;5082439;28;20301;-82
2023/01/21 09:50:53;;;;;;;18.95;14.05;;;;;;;;;;5080470;28;20072;-82
2023/01/21 09:53:27;;;;;;;24.50;15.30;;;;;;;;;;5081144;28;20048;-82
2023/01/21 09:55:57;;;;;;;24.02;16.55;;;;;;;;;;5079767;28;22111;-82
2023/01/21 09:58:27;;;;;;;23.13;16.10;;;;;;;;;;5073379;28;20049;-82
2023/01/21 10:00:58;;;;;;;23.50;16.65;;;;;;;;;;5079925;28;20048;-82
2023/01/21 10:03:29;;;;;;;22.48;18.15;;;;;;;;;;5086048;28;20044;-81
2023/01/21 10:06:10;;;;;;;28.27;20.17;;;;;;;;;;5086802;28;20061;-81
2023/01/21 10:08:49;;;;;;;20.67;16.67;;;;;;;;;;5069712;28;20060;-82
2023/01/21 10:11:26;;;;;;;24.48;19.25;;;;;;;;;;5072322;28;20044;-82
2023/01/21 10:14:03;;;;;;;19.27;17.13;;;;;;;;;;5076564;28;20044;-81
2023/01/21 10:16:37;;;;;;;22.98;18.00;;;;;;;;;;5065949;28;21845;-82
2023/01/21 10:19:05;;;;;;;22.80;16.70;;;;;;;;;;5074036;28;20044;-82
2023/01/21 10:21:35;;;;;;;25.27;20.00;;;;;;;;;;5081787;28;20040;-82
2023/01/21 10:24:04;;;;;;;21.67;18.38;;;;;;;;;;5073447;28;20048;-82
2023/01/21 10:26:34;;;;;;;25.98;18.60;;;;;;;;;;5086169;28;20049;-82
2023/01/21 10:29:02;;;;;;;24.92;19.60;;;;;;;;;;5075734;28;20262;-82
2023/01/21 10:31:30;;;;;;;25.90;18.45;;;;;;;;;;5083385;28;20071;-82
2023/01/21 10:34:01;;;;;;;24.83;17.45;;;;;;;;;;5079803;28;20043;-82
2023/01/21 10:36:40;;;;;;;25.77;17.05;;;;;;;;;;5082117;28;20043;-83
2023/01/21 10:39:17;;;;;;;18.73;13.60;;;;;;;;;;5076603;28;20046;-82
2023/01/21 10:42:03;;;;;;;19.45;15.93;;;;;;;;;;5078162;28;20048;-82
2023/01/21 10:44:39;;;;;;;19.60;15.65;;;;;;;;;;5072853;28;20044;-83
2023/01/21 10:47:13;;;;;;;20.65;16.42;;;;;;;;;;5074325;28;20513;-82
2023/01/21 10:49:52;;;;;;;22.80;15.02;;;;;;;;;;5078719;28;20055;-82
2023/01/21 10:52:25;;;;;;;19.00;14.35;;;;;;;;;;5079740;28;20412;-82
2023/01/21 10:54:59;;;;;;;24.58;15.35;;;;;;;;;;5086781;28;20055;-83
2023/01/21 10:57:38;;;;;;;18.70;15.20;;;;;;;;;;5057872;28;20055;-83
2023/01/21 11:00:17;;;;;;;20.92;16.10;;;;;;;;;;5079991;28;20043;-82
2023/01/21 11:02:50;;;;;;;18.95;13.98;;;;;;;;;;5076414;28;20055;-82
2023/01/21 11:05:19;;;;;;;18.75;13.32;;;;;;;;;;5083354;28;20095;-83
2023/01/21 11:07:48;;;;;;;20.00;13.43;;;;;;;;;;5080672;28;20043;-82
2023/01/21 11:10:19;;;;;;;17.45;12.95;;;;;;;;;;5081789;28;20048;-83
2023/01/21 11:12:47;;;;;;;17.83;13.48;;;;;;;;;;5082709;28;20053;-82
2023/01/21 11:15:18;;;;;;;17.35;12.18;;;;;;;;;;5073665;28;20406;-82
2023/01/21 11:17:51;;;;;;;16.20;10.60;;;;;;;;;;5080642;28;20406;-83
2023/01/21 11:20:24;;;;;;;15.73;10.68;;;;;;;;;;5072807;28;20051;-83
2023/01/21 11:22:51;;;;;;;13.60;10.20;;;;;;;;;;5058986;28;20048;-83
2023/01/21 11:25:26;;;;;;;18.05;13.23;;;;;;;;;;5078430;28;20043;-83
2023/01/21 11:27:58;;;;;;;15.82;11.63;;;;;;;;;;5080754;28;20051;-83
2023/01/21 11:30:31;;;;;;;15.07;11.55;;;;;;;;;;5072809;28;20059;-83
2023/01/21 11:33:22;;;;;;;14.18;9.48;;;;;;;;;;5082691;28;20040;-84
2023/01/21 11:35:54;;;;;;;15.30;11.43;;;;;;;;;;5074545;28;20056;-84
2023/01/21 11:38:26;;;;;;;12.52;8.85;;;;;;;;;;5050761;28;20044;-83
2023/01/21 11:41:01;;;;;;;16.27;10.30;;;;;;;;;;5077778;28;20191;-83
2023/01/21 11:43:33;;;;;;;18.00;10.88;;;;;;;;;;5075353;28;20392;-83
2023/01/21 11:46:00;;;;;;;21.73;14.77;;;;;;;;;;5090043;28;20059;-83
2023/01/21 11:48:34;;;;;;;20.17;12.50;;;;;;;;;;5067261;28;20044;-84
2023/01/21 11:51:08;;;;;;;16.77;12.52;;;;;;;;;;5074299;28;20055;-83
2023/01/21 11:53:36;;;;;;;20.20;13.68;;;;;;;;;;5061329;28;20063;-83
2023/01/21 11:56:07;;;;;;;16.13;11.57;;;;;;;;;;5082922;28;20051;-83
2023/01/21 11:58:39;;;;;;;17.65;11.63;;;;;;;;;;5071539;28;20063;-83
2023/01/21 12:01:11;;;;;;;19.52;10.43;;;;;;;;;;5078912;28;20044;-83
2023/01/21 12:03:43;;;;;;;19.25;11.82;;;;;;;;;;5069535;28;20049;-84
2023/01/21 12:06:19;;;;;;;19.05;14.63;;;;;;;;;;5049817;28;20052;-83
2023/01/21 12:08:49;;;;;;;20.98;11.32;;;;;;;;;;5075025;28;20045;-84
2023/01/21 12:11:19;;;;;;;12.65;8.90;;;;;;;;;;5082400;28;20036;-84
2023/01/21 12:13:50;;;;;;;16.40;11.77;;;;;;;;;;5075908;28;20067;-84
2023/01/21 12:16:27;;;;;;;;;;;;;;;;;;5081157;28;20423;-84
2023/01/21 12:19:17;;;;;;;16.10;13.00;;;;;;;;;;5079753;28;19927;-84
2023/01/21 12:22:00;;;;;;;13.68;10.68;;;;;;;;;;5080996;28;20045;-84
2023/01/21 12:24:40;;;;;;;17.38;10.77;;;;;;;;;;5079962;28;20058;-83
2023/01/21 12:27:17;;;;;;;18.92;12.85;;;;;;;;;;5077759;28;20055;-84
2023/01/21 12:29:57;;;;;;;15.38;11.95;;;;;;;;;;5080610;28;20052;-83
2023/01/21 12:32:26;;;;;;;17.15;13.18;;;;;;;;;;5080403;28;20044;-84
2023/01/21 12:35:02;;;;;;;16.23;11.00;;;;;;;;;;5065900;28;20044;-84
2023/01/21 12:37:33;;;;;;;16.67;10.10;;;;;;;;;;5081203;28;20044;-84
2023/01/21 12:40:06;;;;;;;18.25;11.57;;;;;;;;;;5080685;28;20044;-84
2023/01/21 12:42:36;;;;;;;15.90;10.20;;;;;;;;;;5074640;28;20048;-84
2023/01/21 12:45:06;;;;;;;14.32;9.32;;;;;;;;;;5077483;28;20041;-84
2023/01/21 12:47:40;;;;;;;19.73;12.15;;;;;;;;;;5076968;28;20055;-84
2023/01/21 14:13:40;;;;;;;13.85;11.68;;;;;;;;;;5164673;22;21411;-88
2023/01/21 14:16:20;;;;;;;15.63;12.63;;;;;;;;;;5002700;28;20049;-89
2023/01/21 14:19:04;;;;;;;17.88;12.50;;;;;;;;;;5020808;28;20056;-89
2023/01/21 14:21:54;;;;;;;24.75;14.77;;;;;;;;;;5015036;28;20045;-89
2023/01/21 14:24:35;;;;;;;15.40;13.18;;;;;;;;;;5018640;28;20049;-89
2023/01/21 14:27:10;;;;;;;15.98;13.52;;;;;;;;;;5006602;28;20538;-88
2023/01/21 14:29:43;;;;;;;17.50;13.18;;;;;;;;;;5033004;28;20041;-90
2023/01/21 14:32:15;;;;;;;22.45;13.52;;;;;;;;;;5014944;28;20395;-88
2023/01/21 14:34:50;;;;;;;27.70;11.50;;;;;;;;;;5015049;28;20048;-90
2023/01/21 14:37:27;;;;;;;22.00;12.27;;;;;;;;;;5021878;28;20049;-89
2023/01/21 14:40:03;;;;;;;13.95;10.23;;;;;;;;;;5024383;28;20061;-89
2023/01/21 14:42:42;;;;;;;15.05;10.73;;;;;;;;;;5024445;28;20058;-88
2023/01/21 14:45:21;;;;;;;20.00;12.88;;;;;;;;;;5009659;28;20041;-90
2023/01/21 14:47:52;;;;;;;17.73;12.48;;;;;;;;;;5027594;28;20052;-89
2023/01/21 14:50:40;;;;;;;;;;;;;;;;;;5027853;28;20498;-90
2023/01/21 14:53:10;;;;;;;18.35;13.95;;;;;;;;;;5001066;28;19921;-87
2023/01/21 14:55:40;;;;;;;15.75;12.73;;;;;;;;;;5055663;28;20045;-89
2023/01/21 14:58:31;;;;;;;18.65;12.45;;;;;;;;;;5027648;28;20041;-89
2023/01/21 15:01:05;;;;;;;15.98;11.70;;;;;;;;;;5034308;28;20062;-90
2023/01/21 15:03:33;;;;;;;19.40;13.90;;;;;;;;;;5029219;28;20613;-87
2023/01/21 15:06:03;;;;;;;18.27;11.25;;;;;;;;;;5023890;28;20065;-89
2023/01/21 15:08:42;;;;;;;15.73;13.02;;;;;;;;;;5012849;28;20050;-90
2023/01/21 15:11:20;;;;;;;17.17;14.30;;;;;;;;;;5043875;28;20056;-90
2023/01/21 15:13:58;;;;;;;15.18;11.20;;;;;;;;;;5057416;28;20561;-88
2023/01/21 15:16:35;;;;;;;19.95;12.07;;;;;;;;;;5007720;28;20049;-89
2023/01/21 15:19:20;;;;;;;22.92;15.10;;;;;;;;;;5010635;28;20056;-88
2023/01/21 15:22:20;;;;;;;15.90;10.68;;;;;;;;;;5027239;28;20053;-88
2023/01/21 15:25:18;;;;;;;19.45;13.48;;;;;;;;;;5008208;28;20529;-90
2023/01/21 15:28:39;;;;;;;15.48;11.70;;;;;;;;;;5042399;28;20499;-89
2023/01/21 15:31:08;;;;;;;15.02;11.88;;;;;;;;;;5027014;28;20049;-90
2023/01/21 15:33:42;;;;;;;16.50;11.20;;;;;;;;;;5013058;28;20064;-87
2023/01/21 15:36:20;;;;;;;14.20;10.20;;;;;;;;;;5022048;28;20053;-90
2023/01/21 15:38:49;;;;;;;16.75;12.43;;;;;;;;;;5011212;28;20064;-88
2023/01/21 15:41:26;;;;;;;13.27;11.80;;;;;;;;;;5005364;28;20051;-90
2023/01/21 15:44:09;;;;;;;18.42;11.32;;;;;;;;;;5023524;28;20505;-87
2023/01/21 15:46:42;;;;;;;24.10;13.07;;;;;;;;;;5009591;28;20053;-88
2023/01/21 15:49:23;;;;;;;16.70;10.73;;;;;;;;;;5027496;28;20417;-88
2023/01/21 15:52:00;;;;;;;17.35;9.85;;;;;;;;;;5013372;28;20045;-89
2023/01/21 15:54:36;;;;;;;14.23;11.57;;;;;;;;;;5053300;28;20412;-89
2023/01/21 15:57:18;;;;;;;16.50;11.52;;;;;;;;;;5037698;28;20056;-88
2023/01/21 15:59:57;;;;;;;13.85;9.48;;;;;;;;;;5010628;28;20532;-88
2023/01/21 16:02:26;;;;;;;20.75;13.90;;;;;;;;;;5021384;28;20056;-89
2023/01/21 16:05:15;;;;;;;16.02;11.82;;;;;;;;;;5041372;28;20540;-89
2023/01/21 16:07:55;;;;;;;14.98;10.68;;;;;;;;;;5026505;28;20038;-90
2023/01/21 16:10:30;;;;;;;16.95;11.52;;;;;;;;;;5031837;28;20040;-89
2023/01/21 16:13:08;;;;;;;19.25;11.82;;;;;;;;;;5007934;28;20045;-90
2023/01/21 16:15:46;;;;;;;16.23;11.90;;;;;;;;;;5025817;28;20033;-91
2023/01/21 16:18:22;;;;;;;16.15;12.25;;;;;;;;;;5019911;28;20056;-90
2023/01/21 16:20:53;;;;;;;16.73;11.68;;;;;;;;;;5027159;28;20055;-89
2023/01/21 16:23:21;;;;;;;13.63;9.95;;;;;;;;;;5015588;28;20041;-90
2023/01/21 16:25:52;;;;;;;16.08;12.90;;;;;;;;;;5026314;28;20044;-89
2023/01/21 16:28:21;;;;;;;17.30;11.65;;;;;;;;;;5018267;28;20054;-91
2023/01/21 16:30:53;;;;;;;14.77;12.82;;;;;;;;;;5030334;28;20053;-89
2023/01/21 16:33:21;;;;;;;16.27;10.93;;;;;;;;;;5026316;28;20049;-89
2023/01/21 16:35:52;;;;;;;18.83;9.90;;;;;;;;;;5043009;28;20053;-89
2023/01/21 16:38:21;;;;;;;18.27;12.65;;;;;;;;;;5005138;28;20045;-92
2023/01/21 16:40:50;;;;;;;14.27;10.55;;;;;;;;;;5033308;28;20045;-89
2023/01/21 16:43:23;;;;;;;17.52;12.18;;;;;;;;;;5018451;28;20045;-88
2023/01/21 16:48:35;;;;;;;16.52;13.70;;;;;;;;;;5029165;28;20052;-90
2023/01/21 16:51:04;;;;;;;15.70;11.93;;;;;;;;;;5015405;28;20037;-89
2023/01/21 16:53:32;;;;;;;14.65;9.10;;;;;;;;;;5003371;28;20061;-91
2023/01/21 16:56:12;;;;;;;14.75;10.75;;;;;;;;;;5010286;28;20045;-90